createdAt,value
2022-09-09T00:01:31.705Z,100149.38
2022-09-09T00:04:05.172Z,100153.38
2022-09-09T00:06:36.579Z,100152.31
2022-09-09T00:09:14.080Z,100162.00
2022-09-09T00:11:59.535Z,100146.78
2022-09-09T00:15:13.496Z,100150.75
2022-09-09T00:17:57.634Z,100159.38
2022-09-09T00:20:36.789Z,100159.94
2022-09-09T00:23:20.780Z,100162.22
2022-09-09T00:25:55.109Z,100165.28
2022-09-09T00:28:25.971Z,100158.91
2022-09-09T00:30:53.225Z,100162.81
2022-09-09T00:33:24.047Z,100158.38
2022-09-09T00:35:59.551Z,100157.88
2022-09-09T00:38:43.032Z,100164.31
2022-09-09T00:41:16.073Z,100173.00
2022-09-09T00:43:44.239Z,100177.53
2022-09-09T00:46:26.562Z,100171.16
2022-09-09T00:49:10.998Z,100175.66
2022-09-09T00:51:48.094Z,100177.28
2022-09-09T00:54:39.147Z,100182.00
2022-09-09T00:57:24.986Z,100183.44
2022-09-09T01:00:21.023Z,100188.38
2022-09-09T01:03:15.929Z,100193.91
2022-09-09T01:06:18.230Z,100193.38
2022-09-09T01:09:12.842Z,100200.59
2022-09-09T01:12:02.800Z,100191.19
2022-09-09T01:14:35.664Z,100192.88
2022-09-09T01:17:23.437Z,100200.88
2022-09-09T01:20:10.233Z,100196.25
2022-09-09T01:22:51.368Z,100191.19
2022-09-09T01:25:32.776Z,100201.69
2022-09-09T01:28:09.319Z,100208.66
2022-09-09T01:30:40.308Z,100210.09
2022-09-09T01:33:13.835Z,100205.59
2022-09-09T01:36:05.317Z,100210.09
2022-09-09T01:38:34.115Z,100208.63
2022-09-09T01:41:01.183Z,100210.94
2022-09-09T01:43:29.308Z,100220.34
2022-09-09T01:45:59.710Z,100219.56
2022-09-09T01:48:27.354Z,100217.38
2022-09-09T01:50:54.265Z,100227.09
2022-09-09T01:53:22.636Z,100227.69
2022-09-09T01:56:01.642Z,100224.69
2022-09-09T01:58:47.056Z,100233.34
2022-09-09T02:01:42.601Z,100232.31
2022-09-09T02:04:35.860Z,100238.19
2022-09-09T02:07:02.733Z,100232.78
2022-09-09T02:09:31.325Z,100235.25
2022-09-09T02:12:13.150Z,100233.00
2022-09-09T02:14:47.919Z,100240.19
2022-09-09T02:17:22.240Z,100239.69
2022-09-09T02:19:55.441Z,100238.91
2022-09-09T02:22:25.388Z,100241.59
2022-09-09T02:24:56.710Z,100242.44
2022-09-09T02:27:24.351Z,100247.38
2022-09-09T02:29:55.883Z,100250.44
2022-09-09T02:32:25.586Z,100260.06
2022-09-09T02:35:01.059Z,100252.31
2022-09-09T02:37:33.299Z,100261.75
2022-09-09T02:40:00.285Z,100265.63
2022-09-09T02:42:27.183Z,100261.16
2022-09-09T02:44:57.206Z,100263.34
2022-09-09T02:47:40.221Z,100262.22
2022-09-09T02:50:14.830Z,100268.91
2022-09-09T02:53:08.800Z,100261.25
2022-09-09T02:55:47.556Z,100279.03
2022-09-09T02:58:20.333Z,100279.41
2022-09-09T03:00:49.602Z,100283.63
2022-09-09T03:03:20.339Z,100280.91
2022-09-09T03:05:47.331Z,100269.34
2022-09-09T03:08:14.780Z,100269.34
2022-09-09T03:10:41.535Z,100287.34
2022-09-09T03:13:09.187Z,100278.28
2022-09-09T03:15:36.658Z,100291.56
2022-09-09T03:18:03.579Z,100287.19
2022-09-09T03:20:31.264Z,100287.75
2022-09-09T03:22:58.833Z,100288.88
2022-09-09T03:25:25.818Z,100290.00
2022-09-09T03:27:55.371Z,100293.34
2022-09-09T03:30:24.028Z,100291.38
2022-09-09T03:32:51.345Z,100292.22
2022-09-09T03:35:18.261Z,100300.50
2022-09-09T03:37:45.371Z,100298.53
2022-09-09T03:40:12.839Z,100304.34
2022-09-09T03:42:40.665Z,100306.03
2022-09-09T03:45:10.325Z,100309.31
2022-09-09T03:47:37.568Z,100308.72
2022-09-09T03:50:09.151Z,100309.81
2022-09-09T03:52:40.546Z,100313.09
2022-09-09T03:55:08.351Z,100324.16
2022-09-09T03:57:36.917Z,100321.34
2022-09-09T04:00:09.371Z,100315.53
2022-09-09T04:02:36.168Z,100316.31
2022-09-09T04:05:03.292Z,100324.56
2022-09-09T04:07:30.486Z,100320.09
2022-09-09T04:09:58.200Z,100320.34
2022-09-09T04:12:25.039Z,100329.19
2022-09-09T04:14:51.773Z,100319.22
2022-09-09T04:17:18.571Z,100326.72
2022-09-09T04:19:47.536Z,100329.19
2022-09-09T04:22:14.412Z,100335.19
2022-09-09T04:24:42.725Z,100343.22
2022-09-09T04:27:12.887Z,100332.13
2022-09-09T04:29:39.627Z,100335.44
2022-09-09T04:32:06.569Z,100328.47
2022-09-09T04:34:33.925Z,100330.81
2022-09-09T04:37:02.273Z,100337.13
2022-09-09T04:39:29.062Z,100340.69
2022-09-09T04:41:57.015Z,100332.53
2022-09-09T04:44:23.775Z,100339.66
2022-09-09T04:46:50.548Z,100335.50
2022-09-09T04:49:17.439Z,100343.22
2022-09-09T04:51:44.258Z,100344.81
2022-09-09T04:54:11.764Z,100341.38
2022-09-09T04:56:38.570Z,100343.75
2022-09-09T04:59:05.418Z,100348.91
2022-09-09T05:01:33.659Z,100350.78
2022-09-09T05:04:02.819Z,100348.56
2022-09-09T05:06:32.434Z,100350.97
2022-09-09T05:09:01.875Z,100355.66
2022-09-09T05:11:32.116Z,100358.56
2022-09-09T05:13:58.759Z,100363.28
2022-09-09T05:16:26.012Z,100364.66
2022-09-09T05:18:52.978Z,100367.03
2022-09-09T05:21:22.498Z,100370.19
2022-09-09T05:23:49.745Z,100367.59
2022-09-09T05:26:19.963Z,100373.81
2022-09-09T05:28:47.222Z,100374.00
2022-09-09T05:31:15.857Z,100375.53
2022-09-09T05:33:44.636Z,100369.13
2022-09-09T05:36:17.752Z,100366.19
2022-09-09T05:38:45.226Z,100364.97
2022-09-09T05:41:13.533Z,100359.78
2022-09-09T05:43:40.436Z,100362.97
2022-09-09T05:46:09.054Z,100365.56
2022-09-09T05:48:38.666Z,100358.59
2022-09-09T05:51:10.730Z,100359.72
2022-09-09T05:53:37.954Z,100356.88
2022-09-09T05:56:05.979Z,100359.50
2022-09-09T05:58:34.330Z,100367.75
2022-09-09T06:01:05.846Z,100376.41
2022-09-09T06:03:32.892Z,100367.38
2022-09-09T06:06:02.356Z,100377.84
2022-09-09T06:08:29.603Z,100371.06
2022-09-09T06:11:03.800Z,100365.06
2022-09-09T06:13:31.593Z,100366.91
2022-09-09T06:15:59.581Z,100375.03
2022-09-09T06:18:27.247Z,100367.41
2022-09-09T06:20:59.202Z,100380.03
2022-09-09T06:23:26.497Z,100379.00
2022-09-09T06:26:02.247Z,100383.34
2022-09-09T06:28:29.092Z,100385.78
2022-09-09T06:31:01.115Z,100384.50
2022-09-09T06:33:31.651Z,100379.50
2022-09-09T06:36:00.720Z,100388.22
2022-09-09T06:38:27.557Z,100390.34
2022-09-09T06:41:00.024Z,100386.50
2022-09-09T06:43:27.888Z,100388.50
2022-09-09T06:45:58.478Z,100392.91
2022-09-09T06:48:29.111Z,100398.28
2022-09-09T06:51:30.248Z,100394.69
2022-09-09T06:53:59.359Z,100398.56
2022-09-09T06:56:46.550Z,100398.31
2022-09-09T06:59:13.456Z,100408.00
2022-09-09T07:01:42.747Z,100412.34
2022-09-09T07:04:12.015Z,100411.19
2022-09-09T07:06:44.508Z,100409.97
2022-09-09T07:09:13.854Z,100394.38
2022-09-09T07:11:46.362Z,100408.56
2022-09-09T07:14:15.131Z,100414.19
2022-09-09T07:16:43.090Z,100420.19
2022-09-09T07:19:10.750Z,100425.69
2022-09-09T07:21:37.668Z,100428.94
2022-09-09T07:24:08.394Z,100427.00
2022-09-09T07:26:35.670Z,100434.38
2022-09-09T07:29:04.155Z,100429.06
2022-09-09T07:31:34.236Z,100437.19
2022-09-09T07:34:01.620Z,100438.97
2022-09-09T07:36:33.565Z,100431.59
2022-09-09T07:39:06.188Z,100436.50
2022-09-09T07:41:42.841Z,100442.97
2022-09-09T07:44:15.906Z,100448.19
2022-09-09T07:46:43.869Z,100448.06
2022-09-09T07:49:11.966Z,100443.28
2022-09-09T07:51:42.222Z,100445.09
2022-09-09T07:54:12.272Z,100457.16
2022-09-09T07:56:40.456Z,100447.38
2022-09-09T07:59:08.358Z,100460.28
2022-09-09T08:01:40.217Z,100455.75
2022-09-09T08:04:11.001Z,100468.91
2022-09-09T08:06:41.195Z,100468.25
2022-09-09T08:09:09.511Z,100468.25
2022-09-09T08:11:39.178Z,100458.06
2022-09-09T08:14:08.661Z,100449.78
2022-09-09T08:16:42.918Z,100448.75
2022-09-09T08:19:09.868Z,100455.34
2022-09-09T08:21:40.147Z,100448.75
2022-09-09T08:24:08.543Z,100451.09
2022-09-09T08:26:38.457Z,100448.72
2022-09-09T08:29:07.780Z,100448.56
2022-09-09T08:31:38.324Z,100443.81
2022-09-09T08:34:06.835Z,100454.53
2022-09-09T08:36:41.907Z,100451.09
2022-09-09T08:39:10.471Z,100455.50
2022-09-09T08:42:07.907Z,100457.00
2022-09-09T08:44:59.123Z,100446.94
2022-09-09T08:47:52.330Z,100443.09
2022-09-09T08:50:25.925Z,100435.28
2022-09-09T08:53:17.455Z,100432.94
2022-09-09T08:55:59.890Z,100436.31
2022-09-09T08:58:31.805Z,100442.56
2022-09-09T09:01:10.739Z,100443.41
2022-09-09T09:04:13.106Z,100450.66
2022-09-09T09:07:01.252Z,100455.81
2022-09-09T09:09:50.015Z,100464.50
2022-09-09T09:12:24.533Z,100461.59
2022-09-09T09:14:51.671Z,100459.84
2022-09-09T09:17:20.547Z,100456.72
2022-09-09T09:19:51.563Z,100467.94
2022-09-09T09:22:26.484Z,100453.00
2022-09-09T09:25:04.907Z,100445.53
2022-09-09T09:27:33.361Z,100435.50
2022-09-09T09:30:23.866Z,100440.88
2022-09-09T09:32:55.619Z,100447.97
2022-09-09T09:35:22.711Z,100450.56
2022-09-09T09:40:36.571Z,100455.47
2022-09-09T09:43:09.690Z,100452.34
2022-09-09T09:45:55.280Z,100452.69
2022-09-09T09:48:32.082Z,100443.66
2022-09-09T09:51:03.697Z,100448.66
2022-09-09T09:53:36.848Z,100449.38
2022-09-09T09:56:09.217Z,100453.59
2022-09-09T09:58:45.566Z,100452.09
2022-09-09T10:01:34.373Z,100460.22
2022-09-09T10:04:14.294Z,100456.34
2022-09-09T10:06:41.863Z,100462.03
2022-09-09T10:09:26.749Z,100449.38
2022-09-09T10:12:24.107Z,100453.22
2022-09-09T10:15:15.567Z,100464.03
2022-09-09T10:18:08.231Z,100463.41
2022-09-09T10:21:01.942Z,100460.59
2022-09-09T10:23:46.195Z,100461.63
2022-09-09T10:26:15.844Z,100459.06
2022-09-09T10:29:12.602Z,100458.13
2022-09-09T10:32:04.113Z,100457.22
2022-09-09T10:34:36.820Z,100461.41
2022-09-09T10:37:19.633Z,100467.78
2022-09-09T10:39:46.692Z,100463.69
2022-09-09T10:42:20.406Z,100472.50
2022-09-09T10:44:57.963Z,100477.63
2022-09-09T10:47:54.202Z,100462.09
2022-09-09T10:50:50.329Z,100457.56
2022-09-09T10:53:29.903Z,100462.25
2022-09-09T10:56:13.774Z,100455.63
2022-09-09T10:58:51.931Z,100465.25
2022-09-09T11:01:55.697Z,100475.72
2022-09-09T11:04:26.958Z,100470.81
2022-09-09T11:06:56.626Z,100478.06
2022-09-09T11:09:28.535Z,100483.69
2022-09-09T11:12:00.598Z,100470.53
2022-09-09T11:14:58.887Z,100462.75
2022-09-09T11:17:32.543Z,100466.13
2022-09-09T11:19:59.404Z,100459.44
2022-09-09T11:22:39.243Z,100472.19
2022-09-09T11:25:23.748Z,100473.41
2022-09-09T11:28:10.664Z,100474.66
2022-09-09T11:31:17.978Z,100477.94
2022-09-09T11:34:07.176Z,100479.25
2022-09-09T11:36:42.926Z,100484.66
2022-09-09T11:39:39.602Z,100481.38
2022-09-09T11:42:20.462Z,100479.91
2022-09-09T11:44:47.935Z,100478.41
2022-09-09T11:47:31.745Z,100473.50
2022-09-09T11:50:19.753Z,100470.88
2022-09-09T11:52:49.526Z,100477.63
2022-09-09T11:55:33.946Z,100462.81
2022-09-09T11:58:15.350Z,100468.19
2022-09-09T12:00:45.054Z,100467.72
2022-09-09T12:03:44.666Z,100464.78
2022-09-09T12:06:12.003Z,100473.00
2022-09-09T12:08:44.758Z,100474.16
2022-09-09T12:11:12.123Z,100465.59
2022-09-09T12:13:39.054Z,100451.22
2022-09-09T12:16:06.903Z,100463.88
2022-09-09T12:18:40.586Z,100474.78
2022-09-09T12:21:42.638Z,100470.03
2022-09-09T12:24:12.678Z,100468.88
2022-09-09T12:26:45.858Z,100473.22
2022-09-09T12:29:31.248Z,100474.97
2022-09-09T12:32:13.254Z,100470.50
2022-09-09T12:34:48.389Z,100466.94
2022-09-09T12:37:29.297Z,100472.53
2022-09-09T12:39:57.463Z,100469.97
2022-09-09T12:42:25.669Z,100469.31
2022-09-09T12:45:04.596Z,100470.47
2022-09-09T12:47:42.653Z,100470.63
2022-09-09T12:50:31.972Z,100471.03
2022-09-09T12:53:26.537Z,100473.31
2022-09-09T12:56:00.717Z,100462.97
2022-09-09T12:58:31.757Z,100457.38
2022-09-09T13:00:58.909Z,100462.97
2022-09-09T13:03:28.437Z,100465.75
2022-09-09T13:06:03.685Z,100457.03
2022-09-09T13:08:30.505Z,100456.72
2022-09-09T13:11:09.084Z,100471.81
2022-09-09T13:13:41.345Z,100452.69
2022-09-09T13:16:33.072Z,100455.97
2022-09-09T13:19:07.804Z,100456.16
2022-09-09T13:21:39.617Z,100452.06
2022-09-09T13:24:25.925Z,100463.09
2022-09-09T13:27:03.044Z,100471.19
2022-09-09T13:29:33.764Z,100473.34
2022-09-09T13:32:28.355Z,100474.63
2022-09-09T13:35:00.450Z,100469.97
2022-09-09T13:37:39.140Z,100461.59
2022-09-09T13:40:08.122Z,100465.81
2022-09-09T13:42:40.461Z,100466.47
2022-09-09T13:45:17.067Z,100465.78
2022-09-09T13:47:43.897Z,100471.69
2022-09-09T13:50:22.156Z,100459.88
2022-09-09T13:52:51.218Z,100460.69
2022-09-09T13:55:19.524Z,100466.47
2022-09-09T13:58:03.671Z,100463.16
2022-09-09T14:00:32.912Z,100453.97
2022-09-09T14:03:03.191Z,100453.00
2022-09-09T14:05:32.958Z,100460.06
2022-09-09T14:08:01.601Z,100453.16
2022-09-09T14:10:28.481Z,100455.97
2022-09-09T14:12:55.356Z,100459.75
2022-09-09T14:15:22.947Z,100460.06
2022-09-09T14:17:49.811Z,100450.25
2022-09-09T14:20:18.758Z,100456.63
2022-09-09T14:22:45.603Z,100458.94
2022-09-09T14:25:14.660Z,100453.63
2022-09-09T14:27:41.926Z,100464.47
2022-09-09T14:30:09.811Z,100452.31
2022-09-09T14:32:36.653Z,100451.13
2022-09-09T14:35:03.677Z,100462.13
2022-09-09T14:37:32.290Z,100454.41
2022-09-09T14:39:59.502Z,100450.63
2022-09-09T14:42:33.900Z,100456.34
2022-09-09T14:45:05.019Z,100448.94
2022-09-09T14:47:32.018Z,100454.72
2022-09-09T14:49:58.731Z,100458.16
2022-09-09T14:52:26.825Z,100453.75
2022-09-09T14:54:53.671Z,100454.91
2022-09-09T14:57:20.684Z,100450.31
2022-09-09T14:59:47.504Z,100446.38
2022-09-09T15:02:15.319Z,100450.31
2022-09-09T15:04:45.344Z,100449.13
2022-09-09T15:07:12.126Z,100463.72
2022-09-09T15:09:38.856Z,100457.28
2022-09-09T15:12:05.791Z,100459.69
2022-09-09T15:14:32.584Z,100459.31
2022-09-09T15:17:02.303Z,100457.16
2022-09-09T15:19:31.623Z,100457.81
2022-09-09T15:21:58.496Z,100459.94
2022-09-09T15:24:26.953Z,100464.16
2022-09-09T15:26:54.984Z,100455.94
2022-09-09T15:29:21.734Z,100459.84
2022-09-09T15:31:48.648Z,100456.59
2022-09-09T15:34:15.851Z,100468.22
2022-09-09T15:36:45.658Z,100471.31
2022-09-09T15:39:16.681Z,100461.13
2022-09-09T15:41:45.135Z,100466.03
2022-09-09T15:44:16.562Z,100470.75
2022-09-09T15:46:54.618Z,100473.50
2022-09-09T15:49:26.485Z,100470.53
2022-09-09T15:51:58.537Z,100476.84
2022-09-09T15:54:27.261Z,100478.22
2022-09-09T15:56:57.124Z,100483.38
2022-09-09T15:59:25.280Z,100486.19
2022-09-09T16:01:52.525Z,100486.81
2022-09-09T16:04:24.415Z,100490.63
2022-09-09T16:07:05.986Z,100497.47
2022-09-09T16:09:34.032Z,100491.88
2022-09-09T16:12:03.420Z,100507.13
2022-09-09T16:14:35.450Z,100483.53
2022-09-09T16:17:04.384Z,100496.56
2022-09-09T16:19:33.782Z,100493.59
2022-09-09T16:22:05.558Z,100502.50
2022-09-09T16:24:32.336Z,100498.88
2022-09-09T16:26:59.307Z,100513.81
2022-09-09T16:29:28.402Z,100504.34
2022-09-09T16:31:58.844Z,100506.63
2022-09-09T16:34:29.652Z,100505.06
2022-09-09T16:36:57.218Z,100506.84
2022-09-09T16:39:24.231Z,100509.19
2022-09-09T16:41:51.221Z,100506.84
2022-09-09T16:44:20.495Z,100506.13
2022-09-09T16:46:50.043Z,100513.66
2022-09-09T16:49:17.321Z,100519.00
2022-09-09T16:51:49.446Z,100513.44
2022-09-09T16:54:18.317Z,100519.94
2022-09-09T16:56:47.343Z,100516.13
2022-09-09T16:59:22.552Z,100526.75
2022-09-09T17:01:51.917Z,100524.97
2022-09-09T17:04:26.532Z,100531.16
2022-09-09T17:06:55.043Z,100532.59
2022-09-09T17:09:23.853Z,100525.41
2022-09-09T17:11:52.858Z,100529.91
2022-09-09T17:14:21.222Z,100529.72
2022-09-09T17:16:50.215Z,100525.88
2022-09-09T17:19:17.182Z,100527.03
2022-09-09T17:22:05.933Z,100535.97
2022-09-09T17:24:31.013Z,100527.94
2022-09-09T17:26:58.838Z,100532.97
2022-09-09T17:29:28.261Z,100538.53
2022-09-09T17:31:56.154Z,100543.88
2022-09-09T17:34:23.065Z,100549.25
2022-09-09T17:36:50.006Z,100549.59
2022-09-09T17:39:19.341Z,100540.53
2022-09-09T17:41:46.581Z,100540.22
2022-09-09T17:44:13.377Z,100549.16
2022-09-09T17:46:42.697Z,100559.16
2022-09-09T17:49:15.582Z,100556.38
2022-09-09T17:51:43.719Z,100541.13
2022-09-09T17:54:13.739Z,100546.16
2022-09-09T17:56:42.372Z,100544.59
2022-09-09T17:59:11.364Z,100546.53
2022-09-09T18:01:40.616Z,100557.97
2022-09-09T18:04:09.790Z,100564.13
2022-09-09T18:06:44.969Z,100552.81
2022-09-09T18:09:14.875Z,100541.78
2022-09-09T18:11:45.388Z,100550.66
2022-09-09T18:14:16.554Z,100543.72
2022-09-09T18:16:43.636Z,100544.31
2022-09-09T18:19:14.040Z,100543.53
2022-09-09T18:21:42.537Z,100533.00
2022-09-09T18:24:11.866Z,100530.00
2022-09-09T18:26:40.206Z,100551.41
2022-09-09T18:29:11.256Z,100541.41
2022-09-09T18:31:38.440Z,100548.41
2022-09-09T18:34:07.896Z,100553.97
2022-09-09T18:36:42.403Z,100548.78
2022-09-09T18:39:10.843Z,100554.66
2022-09-09T18:41:40.395Z,100554.94
2022-09-09T18:44:11.312Z,100554.72
2022-09-09T18:46:40.000Z,100552.22
2022-09-09T18:49:07.841Z,100559.75
2022-09-09T18:51:37.252Z,100561.69
2022-09-09T18:54:08.060Z,100565.91
2022-09-09T18:56:35.700Z,100565.69
2022-09-09T18:59:07.092Z,100563.81
2022-09-09T19:01:37.667Z,100552.47
2022-09-09T19:04:06.425Z,100562.75
2022-09-09T19:06:36.831Z,100553.06
2022-09-09T19:09:04.979Z,100564.47
2022-09-09T19:11:35.514Z,100563.06
2022-09-09T19:14:05.907Z,100566.13
2022-09-09T19:16:34.790Z,100563.13
2022-09-09T19:19:08.060Z,100560.34
2022-09-09T19:21:38.239Z,100560.34
2022-09-09T19:24:08.125Z,100562.69
2022-09-09T19:26:40.757Z,100568.00
2022-09-09T19:29:10.311Z,100569.41
2022-09-09T19:31:38.095Z,100564.47
2022-09-09T19:34:05.278Z,100563.94
2022-09-09T19:36:32.407Z,100567.28
2022-09-09T19:39:00.595Z,100570.06
2022-09-09T19:41:28.452Z,100566.75
2022-09-09T19:44:01.982Z,100566.16
2022-09-09T19:46:30.550Z,100567.59
2022-09-09T19:48:58.930Z,100574.56
2022-09-09T19:51:26.956Z,100578.50
2022-09-09T19:54:00.576Z,100578.00
2022-09-09T19:56:28.569Z,100580.81
2022-09-09T19:58:56.423Z,100587.56
2022-09-09T20:01:23.322Z,100588.16
2022-09-09T20:03:52.339Z,100595.94
2022-09-09T20:06:24.453Z,100590.38
2022-09-09T20:08:51.241Z,100591.50
2022-09-09T20:11:18.771Z,100587.91
2022-09-09T20:13:45.717Z,100583.25
2022-09-09T20:16:15.698Z,100593.53
2022-09-09T20:18:45.817Z,100591.34
2022-09-09T20:21:20.335Z,100584.72
2022-09-09T20:23:48.470Z,100595.81
2022-09-09T20:26:23.742Z,100594.47
2022-09-09T20:28:51.755Z,100596.78
2022-09-09T20:31:21.017Z,100601.78
2022-09-09T20:33:48.410Z,100598.16
2022-09-09T20:36:17.279Z,100608.44
2022-09-09T20:38:47.681Z,100599.28
2022-09-09T20:41:18.546Z,100603.50
2022-09-09T20:43:53.540Z,100601.00
2022-09-09T20:46:30.438Z,100600.75
2022-09-09T20:49:02.648Z,100605.75
2022-09-09T20:51:33.335Z,100606.63
2022-09-09T20:54:03.864Z,100613.13
2022-09-09T20:56:33.682Z,100605.31
2022-09-09T20:59:02.848Z,100610.28
2022-09-09T21:01:30.064Z,100610.06
2022-09-09T21:03:57.076Z,100606.44
2022-09-09T21:06:27.180Z,100603.38
2022-09-09T21:08:56.160Z,100608.72
2022-09-09T21:11:24.162Z,100612.59
2022-09-09T21:13:51.572Z,100609.81
2022-09-09T21:16:22.533Z,100615.34
2022-09-09T21:18:50.451Z,100610.38
2022-09-09T21:21:27.817Z,100611.53
2022-09-09T21:23:57.457Z,100612.09
2022-09-09T21:26:25.469Z,100614.63
2022-09-09T21:28:53.737Z,100610.50
2022-09-09T21:31:26.990Z,100617.16
2022-09-09T21:33:54.524Z,100619.94
2022-09-09T21:36:24.219Z,100618.81
2022-09-09T21:38:51.229Z,100621.59
2022-09-09T21:41:18.231Z,100620.53
2022-09-09T21:43:46.871Z,100625.78
2022-09-09T21:46:16.784Z,100629.41
2022-09-09T21:48:44.265Z,100621.38
2022-09-09T21:51:14.844Z,100618.91
2022-09-09T21:53:42.303Z,100629.13
2022-09-09T21:56:17.989Z,100624.44
2022-09-09T21:58:45.214Z,100627.25
2022-09-09T22:01:17.044Z,100622.84
2022-09-09T22:03:44.995Z,100628.13
2022-09-09T22:06:15.269Z,100621.78
2022-09-09T22:08:42.834Z,100623.16
2022-09-09T22:11:12.282Z,100619.88
2022-09-09T22:13:39.362Z,100619.88
2022-09-09T22:16:12.496Z,100627.06
2022-09-09T22:18:40.377Z,100621.56
2022-09-09T22:21:14.601Z,100619.63
2022-09-09T22:23:41.587Z,100629.59
2022-09-09T22:26:09.268Z,100629.59
2022-09-09T22:28:37.611Z,100625.19
2022-09-09T22:31:04.783Z,100628.50
2022-09-09T22:33:31.624Z,100620.19
2022-09-09T22:35:58.841Z,100619.06
2022-09-09T22:38:25.929Z,100616.31
2022-09-09T22:40:53.558Z,100608.84
2022-09-09T22:43:21.779Z,100617.44
2022-09-09T22:45:50.295Z,100619.72
2022-09-09T22:48:17.330Z,100613.94
2022-09-09T22:50:44.871Z,100614.50
2022-09-09T22:53:15.668Z,100623.66
2022-09-09T22:55:42.554Z,100612.88
2022-09-09T22:58:10.167Z,100625.94
2022-09-09T23:00:41.277Z,100624.81
2022-09-09T23:03:08.403Z,100630.34
2022-09-09T23:05:35.377Z,100620.97
2022-09-09T23:08:02.482Z,100624.22
2022-09-09T23:10:29.434Z,100627.00
2022-09-09T23:12:56.870Z,100628.34
2022-09-09T23:15:24.599Z,100623.94
2022-09-09T23:17:55.182Z,100628.63
2022-09-09T23:20:22.423Z,100623.09
2022-09-09T23:22:49.438Z,100630.34
2022-09-09T23:25:16.360Z,100629.78
2022-09-09T23:27:43.554Z,100622.06
2022-09-09T23:30:11.277Z,100634.75
2022-09-09T23:32:38.987Z,100633.09
2022-09-09T23:35:07.653Z,100636.16
2022-09-09T23:37:34.851Z,100626.50
2022-09-09T23:40:01.929Z,100633.41
2022-09-09T23:42:32.977Z,100632.88
2022-09-09T23:45:00.022Z,100633.75
2022-09-09T23:47:27.675Z,100632.06
2022-09-09T23:49:54.711Z,100635.69
2022-09-09T23:52:22.151Z,100638.72
2022-09-09T23:54:50.058Z,100640.72
2022-09-09T23:57:16.805Z,100640.72
2022-09-09T23:59:43.595Z,100637.38
